Time;durP1;ratioP1;P1;durP2;ratioP2;P2;SDS_P1;SDS_P2;PMS_P1;PMS_P2;Temp;Humidity;BMP_temperature;BMP_pressure;BME280_temperature;BME280_humidity;BME280_pressure;Samples;Min_cycle;Max_cycle;Signal;HPM_P1;HPM_P2
2022/01/21 00:01:46;;;;;;;20.25;6.72;;;;;;;3.15;81.41;101657.28;4995538;28;20088;-64
2022/01/21 00:04:12;;;;;;;;;;;;;;;3.14;81.49;101655.47;4995847;28;20471;-63
2022/01/21 00:06:43;;;;;;;15.23;5.85;;;;;;;3.12;81.68;101650.22;5013540;28;20016;-63
2022/01/21 00:09:12;;;;;;;21.25;6.88;;;;;;;3.09;81.28;101647.47;4998217;28;20029;-64
2022/01/21 00:11:40;;;;;;;12.02;5.07;;;;;;;3.11;81.64;101650.13;5017420;28;20092;-64
2022/01/21 00:14:07;;;;;;;12.77;5.93;;;;;;;3.09;80.91;101650.03;4984042;28;20041;-63
2022/01/21 00:16:38;;;;;;;14.30;5.72;;;;;;;3.11;81.56;101642.44;4983181;28;20053;-64
2022/01/21 00:19:09;;;;;;;13.55;5.57;;;;;;;3.11;81.54;101647.56;4999419;28;20034;-64
2022/01/21 00:32:38;;;;;;;17.25;5.50;;;;;;;3.09;81.51;101646.56;4999426;28;20489;-64
2022/01/21 00:35:05;;;;;;;14.00;5.13;;;;;;;3.08;81.76;101647.34;4999516;28;20104;-64
2022/01/21 00:37:33;;;;;;;15.57;6.25;;;;;;;3.07;81.24;101650.69;4999091;28;20539;-63
2022/01/21 00:40:00;;;;;;;16.85;5.30;;;;;;;3.05;81.07;101650.59;5016712;28;20126;-64
2022/01/21 00:45:00;;;;;;;17.05;5.15;;;;;;;3.05;81.48;101645.47;4998783;28;20041;-63
2022/01/21 00:47:26;;;;;;;15.88;5.63;;;;;;;3.04;81.41;101647.13;5016833;28;20034;-63
2022/01/21 00:49:55;;;;;;;16.35;6.00;;;;;;;3.05;81.57;101653.16;4982730;28;20432;-63
2022/01/21 00:52:24;;;;;;;17.50;6.40;;;;;;;3.04;81.44;101659.94;4982629;28;20045;-63
2022/01/21 00:54:49;;;;;;;15.25;5.10;;;;;;;3.05;81.54;101653.16;5015907;28;20037;-63
2022/01/21 00:57:17;;;;;;;14.25;6.07;;;;;;;3.06;81.54;101660.06;5016053;28;20048;-62
2022/01/21 00:59:48;;;;;;;16.67;5.30;;;;;;;3.07;81.90;101660.94;4998545;28;20405;-63
2022/01/21 01:02:16;;;;;;;17.02;5.40;;;;;;;3.08;81.42;101662.72;4982772;28;20413;-63
2022/01/21 01:04:42;;;;;;;14.07;5.25;;;;;;;3.08;81.85;101662.72;4998527;28;20038;-64
2022/01/21 01:07:10;;;;;;;11.45;4.97;;;;;;;3.09;81.58;101667.06;4998420;28;20091;-62
2022/01/21 01:09:38;;;;;;;11.95;4.45;;;;;;;3.09;81.84;101665.41;4982359;28;20030;-63
2022/01/21 01:12:29;;;;;;;12.63;5.30;;;;;;;3.08;81.17;101663.63;5016345;28;20042;-63
2022/01/21 01:20:30;;;;;;;13.13;5.47;;;;;;;3.07;81.07;101666.06;5015560;28;20085;-63
2022/01/21 01:23:07;;;;;;;13.55;5.00;;;;;;;3.07;81.69;101661.84;4981926;28;20038;-63
2022/01/21 01:28:22;;;;;;;15.27;5.40;;;;;;;3.07;81.42;101666.97;5015531;28;20378;-63
2022/01/21 01:30:50;;;;;;;8.50;4.78;;;;;;;3.05;81.06;101658.28;4998117;28;20045;-63
2022/01/21 01:33:24;;;;;;;8.70;4.10;;;;;;;3.05;81.76;101658.28;5015864;28;20564;-63
2022/01/21 01:35:50;;;;;;;11.57;4.50;;;;;;;3.05;81.17;101661.72;4981902;28;20405;-63
2022/01/21 01:38:40;;;;;;;13.18;4.97;;;;;;;3.06;81.73;101662.63;5015728;28;20540;-63
2022/01/21 01:41:14;;;;;;;15.90;5.43;;;;;;;3.05;80.93;101661.72;4997830;28;20088;-63
2022/01/21 01:49:28;;;;;;;21.08;4.75;;;;;;;3.03;81.39;101637.69;5015409;28;20038;-63
2022/01/21 01:51:58;;;;;;;14.27;4.93;;;;;;;3.02;81.52;101633.34;5015563;28;20045;-63
2022/01/21 01:54:29;;;;;;;14.93;5.07;;;;;;;3.04;81.84;101636.00;4981514;28;20133;-63
2022/01/21 01:56:56;;;;;;;11.50;4.72;;;;;;;3.03;81.30;101624.88;5015521;28;20068;-63
2022/01/21 01:59:26;;;;;;;12.18;5.20;;;;;;;3.01;81.55;101613.63;4981355;28;20490;-63
2022/01/21 02:01:57;;;;;;;11.75;5.10;;;;;;;3.03;81.29;101616.28;4997262;28;20439;-63
2022/01/21 02:04:26;;;;;;;17.55;4.90;;;;;;;3.03;81.58;101631.66;4981841;28;20034;-63
2022/01/21 02:06:57;;;;;;;10.52;5.93;;;;;;;3.03;81.50;101624.88;5014884;28;20037;-62
2022/01/21 02:09:27;;;;;;;13.40;4.53;;;;;;;3.02;81.03;101628.22;4981266;28;20080;-63
2022/01/21 02:11:53;;;;;;;14.65;5.70;;;;;;;3.03;81.32;101631.66;4997114;28;20109;-62
2022/01/21 02:14:26;;;;;;;11.45;5.07;;;;;;;3.03;81.71;101639.34;5014872;28;20180;-63
2022/01/21 02:17:17;;;;;;;15.27;4.75;;;;;;;3.03;81.56;101637.69;5014939;28;20065;-62
2022/01/21 02:22:35;;;;;;;20.13;6.45;;;;;;;3.01;81.53;101640.88;5014916;28;20042;-63
2022/01/21 02:25:16;;;;;;;8.65;4.40;;;;;;;2.99;81.59;101645.91;4981158;28;20042;-64
2022/01/21 02:27:43;;;;;;;15.18;5.15;;;;;;;3.00;81.66;101647.69;4997534;28;20044;-63
2022/01/21 02:30:19;;;;;;;14.10;4.85;;;;;;;2.98;81.25;101649.25;4997620;28;20045;-63
2022/01/21 02:32:50;;;;;;;12.05;5.10;;;;;;;2.97;81.27;101650.03;5014385;28;20133;-63
2022/01/21 02:35:17;;;;;;;19.05;5.72;;;;;;;2.98;81.38;101651.81;4980616;28;20034;-63
2022/01/21 02:37:43;;;;;;;15.00;6.07;;;;;;;2.98;81.38;101654.38;5014450;28;20038;-63
2022/01/21 02:40:11;;;;;;;13.15;5.63;;;;;;;2.98;80.87;101656.03;4980630;28;20095;-63
2022/01/21 02:42:40;;;;;;;13.93;6.47;;;;;;;2.97;81.47;101652.59;4980566;28;20033;-63
2022/01/21 02:45:10;;;;;;;13.02;5.88;;;;;;;2.97;81.36;101660.28;4996901;28;20420;-63
2022/01/21 02:47:38;;;;;;;16.45;6.10;;;;;;;2.97;81.51;101642.34;4980430;28;20041;-63
2022/01/21 02:50:10;;;;;;;10.15;5.15;;;;;;;2.97;81.59;101649.13;4980251;28;20168;-63
2022/01/21 02:52:42;;;;;;;11.15;4.32;;;;;;;2.97;81.88;101646.56;4981080;28;20046;-64
2022/01/21 02:55:13;;;;;;;12.25;4.82;;;;;;;2.96;81.00;101644.81;5014351;28;20041;-64
2022/01/21 02:57:38;;;;;;;16.45;4.82;;;;;;;2.96;80.79;101655.06;5014225;28;20065;-63
2022/01/21 03:00:05;;;;;;;13.85;6.03;;;;;;;2.96;81.60;101652.50;5013953;28;20414;-63
2022/01/21 03:02:31;;;;;;;12.90;5.55;;;;;;;2.96;81.45;101647.38;5013500;28;20056;-63
2022/01/21 03:05:07;;;;;;;11.85;4.88;;;;;;;2.95;81.28;101660.97;5014077;28;20038;-63
2022/01/21 03:07:38;;;;;;;16.02;5.07;;;;;;;2.95;81.75;101653.28;4996471;28;20042;-62
2022/01/21 03:10:09;;;;;;;13.70;5.63;;;;;;;2.94;81.23;101643.81;4980390;28;20038;-63
2022/01/21 03:12:37;;;;;;;12.68;4.55;;;;;;;2.95;81.23;101650.72;4980375;28;20096;-63
2022/01/21 03:15:12;;;;;;;13.70;4.80;;;;;;;2.94;80.97;101654.94;4980415;28;20036;-63
2022/01/21 03:17:40;;;;;;;12.75;6.43;;;;;;;2.95;81.33;101655.84;4996694;28;20486;-63
2022/01/21 03:20:09;;;;;;;13.30;4.68;;;;;;;2.95;81.64;101656.72;4979763;28;20037;-62
2022/01/21 03:22:37;;;;;;;15.65;5.72;;;;;;;2.94;81.34;101654.06;4980304;28;20050;-63
2022/01/21 03:25:07;;;;;;;13.32;6.63;;;;;;;2.92;81.70;101668.41;5013356;28;20033;-62
2022/01/21 03:27:33;;;;;;;18.73;6.03;;;;;;;2.91;81.80;101667.50;4979790;28;20041;-63
2022/01/21 03:30:06;;;;;;;12.20;4.97;;;;;;;2.90;81.59;101665.72;4996293;28;20041;-62
2022/01/21 03:32:33;;;;;;;16.60;6.15;;;;;;;2.91;81.73;101658.94;5013887;28;20124;-63
2022/01/21 03:35:04;;;;;;;24.02;6.55;;;;;;;2.89;81.03;101662.28;4980048;28;20034;-63
2022/01/21 03:37:30;;;;;;;14.45;6.63;;;;;;;2.89;81.56;101654.59;4979972;28;20042;-62
2022/01/21 03:40:02;;;;;;;13.68;6.18;;;;;;;2.89;81.49;101663.94;5013374;28;20060;-63
2022/01/21 03:42:28;;;;;;;17.92;7.25;;;;;;;2.89;81.12;101671.63;4995868;28;20095;-62
2022/01/21 03:44:59;;;;;;;13.40;6.75;;;;;;;2.89;81.74;101674.19;5017587;28;20033;-63
2022/01/21 03:47:28;;;;;;;17.15;6.65;;;;;;;2.88;81.58;101682.69;4984377;28;20046;-62
2022/01/21 03:49:57;;;;;;;17.55;6.82;;;;;;;2.87;81.18;101681.75;4983821;28;20040;-63
2022/01/21 03:52:25;;;;;;;18.27;7.13;;;;;;;2.87;81.52;101676.66;4983725;28;20045;-63
2022/01/21 03:54:51;;;;;;;18.25;7.57;;;;;;;2.86;81.88;101684.22;4983372;28;20172;-63
2022/01/21 03:57:17;;;;;;;16.23;7.55;;;;;;;2.84;81.76;101668.72;5017691;28;20552;-63
2022/01/21 03:59:42;;;;;;;16.00;7.60;;;;;;;2.87;81.28;101683.44;5017646;28;20045;-63
2022/01/21 04:02:13;;;;;;;18.60;7.30;;;;;;;2.86;81.47;101681.66;5017288;28;20060;-63
2022/01/21 04:04:44;;;;;;;15.48;8.18;;;;;;;2.87;81.46;101684.31;4984092;28;20096;-63
2022/01/21 04:07:12;;;;;;;18.38;7.65;;;;;;;2.86;81.13;101682.53;4983401;28;20041;-63
2022/01/21 04:09:41;;;;;;;16.52;7.65;;;;;;;2.85;81.08;101677.31;4999590;28;20038;-63
2022/01/21 04:12:07;;;;;;;13.52;7.43;;;;;;;2.86;81.23;101679.09;5016999;28;20401;-63
2022/01/21 04:14:35;;;;;;;19.48;8.32;;;;;;;2.86;81.15;101679.09;4983278;28;20038;-63
2022/01/21 04:17:03;;;;;;;14.02;8.60;;;;;;;2.86;81.14;101669.72;4999812;28;20112;-63
2022/01/21 04:19:29;;;;;;;26.90;8.85;;;;;;;2.86;81.60;101672.28;5016788;28;20037;-62
2022/01/21 04:22:00;;;;;;;15.15;7.88;;;;;;;2.86;81.46;101669.72;4999229;28;20089;-62
2022/01/21 04:24:29;;;;;;;15.02;9.13;;;;;;;2.86;81.39;101681.66;4999226;28;20061;-63
2022/01/21 04:26:54;;;;;;;15.20;7.55;;;;;;;2.85;81.57;101672.19;4983451;28;20076;-63
2022/01/21 04:29:20;;;;;;;21.35;9.68;;;;;;;2.85;81.32;101675.63;4999447;28;20065;-62
2022/01/21 04:31:45;;;;;;;19.95;8.55;;;;;;;2.86;80.93;101671.41;4999302;28;20037;-62
2022/01/21 04:34:10;;;;;;;14.73;7.95;;;;;;;2.86;81.25;101681.66;4982946;28;20084;-63
2022/01/21 04:36:39;;;;;;;13.88;8.07;;;;;;;2.85;81.79;101675.63;4999046;28;20042;-62
2022/01/21 04:39:14;;;;;;;13.52;7.13;;;;;;;2.85;81.58;101673.06;4983348;28;20062;-62
2022/01/21 04:47:19;;;;;;;15.80;8.27;;;;;;;2.85;81.41;101680.75;5016553;28;20030;-63
2022/01/21 04:49:46;;;;;;;15.77;9.20;;;;;;;2.85;81.40;101674.75;4983158;28;20069;-62
2022/01/21 04:52:12;;;;;;;15.57;7.70;;;;;;;2.84;81.27;101673.84;4983052;28;20095;-63
2022/01/21 04:54:43;;;;;;;17.05;8.02;;;;;;;2.84;81.46;101670.41;5015825;28;20039;-63
2022/01/21 04:57:09;;;;;;;18.52;9.20;;;;;;;2.84;81.61;101667.84;5016343;28;20038;-63
2022/01/21 04:59:39;;;;;;;16.80;8.10;;;;;;;2.85;80.86;101674.75;4998718;28;20493;-64
2022/01/21 05:02:06;;;;;;;16.70;8.48;;;;;;;2.84;81.34;101667.84;4998349;28;20056;-63
2022/01/21 05:04:32;;;;;;;15.25;8.88;;;;;;;2.84;81.53;101673.84;5016290;28;20034;-63
2022/01/21 05:07:07;;;;;;;15.80;8.48;;;;;;;2.84;81.86;101662.72;4998675;28;20045;-64
2022/01/21 05:09:36;;;;;;;14.38;8.27;;;;;;;2.83;81.16;101664.38;4982548;28;20030;-64
2022/01/21 05:12:07;;;;;;;15.35;8.60;;;;;;;2.84;81.15;101670.41;5015865;28;20504;-63
2022/01/21 05:15:06;;;;;;;12.32;8.77;;;;;;;2.83;81.38;101673.75;5015603;28;20037;-62
2022/01/21 05:17:31;;;;;;;16.63;8.88;;;;;;;2.83;81.24;101672.06;5016226;28;20041;-62
2022/01/21 05:19:57;;;;;;;16.08;9.10;;;;;;;2.79;81.35;101679.41;5015713;28;20100;-63
2022/01/21 05:22:25;;;;;;;16.77;7.68;;;;;;;2.78;81.59;101672.50;5015971;28;20038;-63
2022/01/21 05:24:50;;;;;;;16.20;9.05;;;;;;;2.77;81.15;101673.28;5015584;28;20040;-63
2022/01/21 05:27:16;;;;;;;11.98;8.15;;;;;;;2.77;81.40;101681.88;5015810;28;20042;-64
2022/01/21 05:29:41;;;;;;;20.08;8.45;;;;;;;2.78;81.64;101682.75;5015980;28;20080;-63
2022/01/21 05:32:10;;;;;;;14.27;8.63;;;;;;;2.78;81.01;101686.22;4981857;28;20464;-64
2022/01/21 05:34:35;;;;;;;11.93;8.07;;;;;;;2.78;81.60;101687.88;4998408;28;20121;-63
2022/01/21 05:37:07;;;;;;;16.65;7.95;;;;;;;2.79;81.38;101680.31;4998192;28;20112;-63
2022/01/21 05:39:32;;;;;;;15.90;8.18;;;;;;;2.79;81.34;101685.44;4982010;28;20048;-62
2022/01/21 05:42:04;;;;;;;15.05;8.10;;;;;;;2.79;81.23;101688.00;5015519;28;20042;-62
2022/01/21 05:46:59;;;;;;;18.85;8.48;;;;;;;2.78;81.29;101686.22;5015270;28;20034;-63
2022/01/21 05:49:28;;;;;;;13.18;8.98;;;;;;;2.81;81.72;101688.09;4981647;28;20402;-63
2022/01/21 05:52:02;;;;;;;14.98;8.57;;;;;;;2.79;81.23;101684.53;4981545;28;20512;-64
2022/01/21 05:54:31;;;;;;;19.75;7.72;;;;;;;2.78;81.39;101686.22;4998330;28;20042;-63
2022/01/21 05:56:57;;;;;;;15.48;8.18;;;;;;;2.77;81.69;101686.09;4981669;28;20473;-62
2022/01/21 05:59:25;;;;;;;13.55;7.72;;;;;;;2.77;81.42;101689.56;4997560;28;20033;-63
2022/01/21 06:01:54;;;;;;;17.70;7.70;;;;;;;2.77;81.48;101693.78;4981182;28;20054;-63
2022/01/21 06:04:20;;;;;;;16.80;9.13;;;;;;;2.76;81.25;101694.53;5014823;28;20049;-63
2022/01/21 06:06:46;;;;;;;16.20;8.73;;;;;;;2.77;81.17;101693.78;4996845;28;20103;-63
2022/01/21 06:09:17;;;;;;;18.35;8.48;;;;;;;2.76;80.94;101686.88;5015439;28;20128;-63
2022/01/21 06:11:45;;;;;;;14.07;8.00;;;;;;;2.77;81.25;101689.56;4981491;28;20052;-63
2022/01/21 06:14:14;;;;;;;13.48;7.22;;;;;;;2.77;81.47;101696.34;5014835;28;20026;-63
2022/01/21 06:16:42;;;;;;;16.35;7.82;;;;;;;2.77;81.27;101702.38;5014742;28;20038;-63
2022/01/21 06:19:10;;;;;;;12.10;8.65;;;;;;;2.77;81.79;101704.00;4997249;28;20038;-62
2022/01/21 06:21:36;;;;;;;16.55;8.05;;;;;;;2.77;81.10;101696.34;5015110;28;20045;-63
2022/01/21 06:24:07;;;;;;;19.30;8.60;;;;;;;2.76;81.11;101700.56;5014797;28;20508;-63
2022/01/21 06:26:36;;;;;;;15.27;9.95;;;;;;;2.77;81.28;101696.34;4997208;28;20501;-62
2022/01/21 06:29:05;;;;;;;16.60;8.48;;;;;;;2.76;81.28;101694.53;4996982;28;20482;-63
2022/01/21 06:31:34;;;;;;;19.35;9.70;;;;;;;2.76;81.08;101694.53;4997159;28;20124;-64
2022/01/21 06:34:02;;;;;;;16.33;8.00;;;;;;;2.76;81.22;101697.09;5015042;28;20037;-64
2022/01/21 06:36:28;;;;;;;22.77;8.63;;;;;;;2.76;80.89;101697.09;4996925;28;20049;-64
2022/01/21 06:38:54;;;;;;;16.65;8.00;;;;;;;2.74;81.66;101697.00;4980949;28;20034;-63
2022/01/21 06:41:20;;;;;;;18.05;8.00;;;;;;;2.74;81.51;101702.13;5014546;28;20125;-63
2022/01/21 06:43:45;;;;;;;14.85;7.68;;;;;;;2.73;81.26;101708.03;5014462;28;20152;-63
2022/01/21 06:46:11;;;;;;;18.35;8.50;;;;;;;2.73;81.59;101721.69;4996850;28;20515;-63
2022/01/21 06:48:37;;;;;;;13.15;7.70;;;;;;;2.74;81.68;101722.63;5014067;28;20045;-64
2022/01/21 06:51:06;;;;;;;15.63;8.43;;;;;;;2.74;81.01;101727.72;5014075;28;20456;-63
2022/01/21 06:53:31;;;;;;;15.70;8.40;;;;;;;2.75;81.56;101726.97;5014179;28;20068;-63
2022/01/21 06:55:57;;;;;;;13.77;7.57;;;;;;;2.75;81.37;101732.06;5014343;28;20036;-63
2022/01/21 06:58:25;;;;;;;19.85;8.60;;;;;;;2.73;81.47;101725.94;5014135;28;20030;-63
2022/01/21 07:00:50;;;;;;;11.18;8.10;;;;;;;2.74;81.51;101727.72;4979911;28;20592;-63
2022/01/21 07:03:16;;;;;;;14.18;7.55;;;;;;;2.73;81.34;101726.81;5013719;28;20045;-63
2022/01/21 07:05:46;;;;;;;13.02;7.85;;;;;;;2.72;81.10;101727.63;5013892;28;20401;-64
2022/01/21 07:08:14;;;;;;;15.85;7.85;;;;;;;2.72;81.78;101731.84;5014253;28;20110;-64
2022/01/21 07:10:42;;;;;;;17.13;7.72;;;;;;;2.72;81.45;101725.06;4996460;28;20040;-63
2022/01/21 07:13:08;;;;;;;15.20;7.72;;;;;;;2.72;81.01;101737.88;4980357;28;20038;-63
2022/01/21 07:15:33;;;;;;;16.05;7.45;;;;;;;2.72;81.31;101745.56;5013898;28;20036;-64
2022/01/21 07:17:59;;;;;;;18.27;9.50;;;;;;;2.72;81.33;101750.69;5014176;28;20120;-63
2022/01/21 07:20:24;;;;;;;14.82;8.23;;;;;;;2.73;81.23;101749.00;5014022;28;20034;-64
2022/01/21 07:22:55;;;;;;;12.68;8.95;;;;;;;2.71;81.61;101748.88;5013892;28;20054;-63
2022/01/21 07:25:22;;;;;;;16.40;7.82;;;;;;;2.72;81.58;101753.25;5013652;28;20042;-64
2022/01/21 07:27:47;;;;;;;14.45;8.30;;;;;;;2.72;81.34;101760.00;4996240;28;20052;-64
2022/01/21 07:30:16;;;;;;;14.93;9.07;;;;;;;2.70;81.53;101757.34;4996062;28;20461;-63
2022/01/21 07:32:43;;;;;;;13.73;7.75;;;;;;;2.70;81.08;101765.03;4979881;28;20064;-63
2022/01/21 07:35:10;;;;;;;14.68;7.60;;;;;;;2.70;81.43;101762.47;4979839;28;20041;-63
2022/01/21 07:37:37;;;;;;;17.02;8.55;;;;;;;2.71;81.05;101765.91;5013823;28;20073;-63
2022/01/21 07:40:04;;;;;;;14.10;8.38;;;;;;;2.70;81.46;101759.91;4995660;28;20029;-63
2022/01/21 07:42:30;;;;;;;14.80;8.38;;;;;;;2.70;81.29;101762.47;4979946;28;20034;-63
2022/01/21 07:44:55;;;;;;;17.35;8.18;;;;;;;2.71;81.33;101763.34;5013441;28;20088;-64
2022/01/21 07:47:21;;;;;;;10.35;6.57;;;;;;;2.71;81.59;101763.34;5013525;28;20083;-63
2022/01/21 07:49:53;;;;;;;14.85;8.27;;;;;;;2.70;81.11;101759.91;5013609;28;20087;-64
2022/01/21 07:52:21;;;;;;;11.88;7.63;;;;;;;2.70;81.59;101762.47;4980147;28;20042;-63
2022/01/21 07:54:46;;;;;;;11.98;7.45;;;;;;;2.69;81.53;101763.25;4995617;28;20402;-63
2022/01/21 07:57:12;;;;;;;12.05;7.93;;;;;;;2.69;80.95;101770.00;4995793;28;20512;-63
2022/01/21 07:59:38;;;;;;;16.88;8.15;;;;;;;2.70;81.45;101774.38;4995653;28;20044;-63
2022/01/21 08:02:04;;;;;;;15.45;7.93;;;;;;;2.69;81.29;101775.13;4995766;28;20052;-63
2022/01/21 08:04:30;;;;;;;13.27;8.40;;;;;;;2.69;81.56;101778.59;5013323;28;20100;-63
2022/01/21 08:07:01;;;;;;;11.38;7.82;;;;;;;2.69;81.28;101767.44;5013685;28;20061;-64
2022/01/21 08:09:30;;;;;;;;;;;;;;;2.68;81.22;101783.59;4995964;28;20037;-63
2022/01/21 08:11:55;;;;;;;15.00;7.13;;;;;;;2.66;81.73;101786.03;4995879;28;19921;-63
2022/01/21 08:14:22;;;;;;;14.88;7.88;;;;;;;2.67;81.41;101789.47;5013347;28;20489;-64
2022/01/21 08:16:53;;;;;;;12.65;8.82;;;;;;;2.64;81.14;101792.72;5013366;28;20065;-64
2022/01/21 08:19:21;;;;;;;18.00;8.73;;;;;;;2.65;81.27;101794.50;4979517;28;20523;-63
2022/01/21 08:21:47;;;;;;;12.32;8.35;;;;;;;2.67;81.74;101797.16;5013265;28;20038;-63
2022/01/21 08:24:16;;;;;;;12.52;8.65;;;;;;;2.66;81.36;101796.28;5013370;28;20045;-63
2022/01/21 08:26:44;;;;;;;15.20;8.75;;;;;;;2.66;81.62;101796.28;5013159;28;20034;-63
2022/01/21 08:29:15;;;;;;;16.60;8.18;;;;;;;2.67;81.50;101802.28;5013799;28;20041;-63
2022/01/21 08:31:45;;;;;;;20.02;7.70;;;;;;;2.66;80.99;101798.84;5017162;28;20050;-62
2022/01/21 08:34:13;;;;;;;10.73;7.75;;;;;;;2.66;81.83;101800.50;4983425;28;20046;-62
2022/01/21 08:36:51;;;;;;;16.88;7.82;;;;;;;2.67;81.06;101798.06;5016746;28;20096;-62
2022/01/21 08:39:28;;;;;;;14.02;8.65;;;;;;;2.66;81.18;101786.03;4999015;28;20452;-62
2022/01/21 08:41:57;;;;;;;15.32;7.82;;;;;;;2.66;81.60;101787.69;4999498;28;20041;-63
2022/01/21 08:44:22;;;;;;;15.73;8.35;;;;;;;2.63;81.25;101801.16;5016589;28;20362;-63
2022/01/21 08:46:48;;;;;;;23.15;9.18;;;;;;;2.65;81.21;101809.00;5016450;28;20401;-63
2022/01/21 08:49:19;;;;;;;13.52;7.57;;;;;;;2.62;81.42;101799.38;5016401;28;20045;-62
2022/01/21 08:51:51;;;;;;;14.82;8.35;;;;;;;2.64;81.07;101790.16;5016310;28;20539;-63
2022/01/21 08:54:17;;;;;;;17.85;8.80;;;;;;;2.64;81.46;101779.91;4982618;28;20041;-63
2022/01/21 08:56:44;;;;;;;11.05;7.70;;;;;;;2.65;80.93;101780.81;4982644;28;20041;-63
2022/01/21 08:59:10;;;;;;;9.55;7.00;;;;;;;2.63;81.75;101785.81;4998928;28;20127;-63
2022/01/21 09:01:38;;;;;;;18.95;9.32;;;;;;;2.66;81.35;101785.13;5016328;28;20469;-63
2022/01/21 09:04:04;;;;;;;10.73;7.75;;;;;;;2.63;81.20;101782.38;5016345;28;20045;-63
2022/01/21 09:06:30;;;;;;;13.00;8.10;;;;;;;2.62;81.68;101784.03;4982658;28;20144;-63
2022/01/21 09:08:56;;;;;;;16.50;8.65;;;;;;;2.63;81.34;101777.25;4998897;28;20038;-63
2022/01/21 09:11:25;;;;;;;16.20;9.00;;;;;;;2.63;81.39;101778.13;4982442;28;20109;-63
2022/01/21 09:13:53;;;;;;;18.73;8.52;;;;;;;2.66;81.43;101777.47;4998907;28;20034;-63
2022/01/21 09:16:22;;;;;;;20.38;8.27;;;;;;;2.64;81.16;101782.47;4982499;28;20120;-63
2022/01/21 09:18:54;;;;;;;12.40;7.60;;;;;;;2.61;81.49;101784.78;4981877;28;20041;-63
2022/01/21 09:21:25;;;;;;;15.65;8.75;;;;;;;2.61;81.56;101782.22;5016200;28;20040;-63
2022/01/21 09:23:52;;;;;;;12.35;7.80;;;;;;;2.63;81.44;101785.81;4982014;28;20092;-62
2022/01/21 09:26:22;;;;;;;15.38;7.72;;;;;;;2.60;81.44;101780.44;4982247;28;20054;-63
2022/01/21 09:28:51;;;;;;;15.13;8.05;;;;;;;2.61;80.95;101778.78;4982110;28;20034;-62
2022/01/21 09:31:18;;;;;;;15.13;9.45;;;;;;;2.60;81.46;101780.44;5015490;28;20108;-63
2022/01/21 09:33:44;;;;;;;13.60;6.93;;;;;;;2.59;81.59;101784.69;4981712;28;20037;-63
2022/01/21 09:36:14;;;;;;;14.70;7.82;;;;;;;2.61;81.33;101787.34;4981861;28;20070;-63
2022/01/21 09:38:40;;;;;;;23.42;8.90;;;;;;;2.62;81.08;101801.94;4997962;28;20066;-62
2022/01/21 09:41:07;;;;;;;15.57;7.15;;;;;;;2.61;81.57;101802.72;5015523;28;20037;-63
2022/01/21 09:43:34;;;;;;;15.50;8.10;;;;;;;2.63;81.21;101807.97;4981981;28;20053;-62
2022/01/21 09:46:05;;;;;;;11.10;7.50;;;;;;;2.63;81.94;101806.28;4997720;28;20026;-63
2022/01/21 09:48:50;;;;;;;14.23;7.60;;;;;;;2.59;81.15;101805.16;4982365;28;20128;-63
2022/01/21 09:51:21;;;;;;;17.38;9.07;;;;;;;2.59;81.22;101800.06;5015873;28;20041;-62
2022/01/21 09:53:50;;;;;;;14.88;8.40;;;;;;;2.58;81.09;101800.81;5015434;28;20100;-63
2022/01/21 09:56:16;;;;;;;11.40;7.60;;;;;;;2.59;81.14;101801.69;4997509;28;20500;-63
2022/01/21 09:58:46;;;;;;;20.45;8.75;;;;;;;2.59;81.14;101789.81;4997614;28;20037;-62
2022/01/21 10:01:18;;;;;;;17.58;6.68;;;;;;;2.60;81.24;101795.81;5015228;28;20107;-63
2022/01/21 10:03:45;;;;;;;13.68;7.88;;;;;;;2.60;81.45;101795.81;4997834;28;20079;-63
2022/01/21 10:06:17;;;;;;;14.00;8.20;;;;;;;2.62;81.43;101793.38;4981295;28;20091;-63
2022/01/21 10:08:44;;;;;;;15.80;8.07;;;;;;;2.63;81.43;101797.72;4981509;28;20049;-63
2022/01/21 10:11:11;;;;;;;19.60;8.88;;;;;;;2.62;81.25;101804.50;4997463;28;20148;-63
2022/01/21 10:13:42;;;;;;;12.55;8.30;;;;;;;2.63;81.08;101802.84;5015026;28;20041;-63
2022/01/21 10:16:13;;;;;;;16.48;8.57;;;;;;;2.62;81.66;101814.75;4980954;28;20544;-63
2022/01/21 10:19:07;;;;;;;18.63;10.25;;;;;;;2.61;81.13;101814.63;4981327;28;20034;-63
2022/01/21 10:21:45;;;;;;;19.85;10.65;;;;;;;2.58;81.31;101817.84;5014575;28;20133;-62
2022/01/21 10:24:13;;;;;;;26.40;9.68;;;;;;;2.58;81.58;101826.44;5015251;28;20046;-63
2022/01/21 10:26:51;;;;;;;21.55;9.25;;;;;;;2.58;81.18;101822.94;5014768;28;20033;-63
2022/01/21 10:29:20;;;;;;;12.93;7.93;;;;;;;2.58;81.63;101828.97;5014691;28;20477;-62
2022/01/21 10:32:06;;;;;;;19.27;8.88;;;;;;;2.59;81.31;101837.53;4980948;28;20612;-63
2022/01/21 10:34:45;;;;;;;15.27;8.25;;;;;;;2.58;81.89;101831.53;4997521;28;20065;-63
2022/01/21 10:37:25;;;;;;;17.08;9.20;;;;;;;2.58;81.58;101833.19;4997291;28;20042;-63
2022/01/21 10:39:58;;;;;;;19.15;8.15;;;;;;;2.58;81.21;101831.53;4980862;28;20379;-63
2022/01/21 10:42:26;;;;;;;15.45;9.45;;;;;;;2.60;81.53;101826.53;4997035;28;20037;-65
2022/01/21 10:44:52;;;;;;;21.17;9.00;;;;;;;2.60;81.60;101831.66;4980642;28;20037;-63
2022/01/21 10:47:18;;;;;;;18.98;9.35;;;;;;;2.62;81.60;101836.91;4996810;28;20038;-64
2022/01/21 10:49:57;;;;;;;18.23;8.65;;;;;;;2.62;80.97;101832.66;5014243;28;20034;-63
2022/01/21 10:52:42;;;;;;;13.18;8.30;;;;;;;2.59;81.22;101832.41;4980537;28;20104;-63
2022/01/21 10:55:32;;;;;;;23.08;9.02;;;;;;;2.60;81.57;101831.66;4996227;28;20038;-63
2022/01/21 10:58:13;;;;;;;18.00;9.07;;;;;;;2.63;81.25;101833.56;5014234;28;20034;-62
2022/01/21 11:00:57;;;;;;;13.10;8.82;;;;;;;2.62;81.61;101832.66;4980332;28;20034;-63
2022/01/21 11:03:31;;;;;;;17.58;9.82;;;;;;;2.61;81.67;101833.44;5014514;28;20053;-63
2022/01/21 11:06:17;;;;;;;17.13;9.38;;;;;;;2.63;81.47;101828.44;4996649;28;20038;-63
2022/01/21 11:08:43;;;;;;;16.38;10.75;;;;;;;2.62;81.70;101830.09;4980611;28;20061;-63
2022/01/21 11:11:13;;;;;;;17.52;9.77;;;;;;;2.63;81.76;101828.44;4996407;28;20453;-63
2022/01/21 11:13:42;;;;;;;16.30;9.90;;;;;;;2.63;81.36;101824.22;4996495;28;20053;-63
2022/01/21 11:16:11;;;;;;;22.35;9.45;;;;;;;2.66;81.29;101829.56;4980132;28;20038;-64
2022/01/21 11:19:08;;;;;;;15.55;9.93;;;;;;;2.65;81.80;101822.66;4980500;28;20512;-63
2022/01/21 11:21:48;;;;;;;14.10;10.10;;;;;;;2.66;81.68;101832.13;4978803;28;20052;-63
2022/01/21 11:24:17;;;;;;;18.73;9.02;;;;;;;2.67;81.88;101822.78;4996483;28;20038;-63
2022/01/21 11:27:07;;;;;;;14.20;8.80;;;;;;;2.68;81.57;101828.03;4980124;28;20045;-63
2022/01/21 11:29:34;;;;;;;17.60;9.10;;;;;;;2.67;81.94;101818.56;4980238;28;20049;-62
2022/01/21 11:32:00;;;;;;;18.73;8.30;;;;;;;2.68;81.54;101811.75;4979857;28;20128;-63
2022/01/21 11:34:26;;;;;;;15.63;9.05;;;;;;;2.68;81.67;101812.66;4979749;28;20042;-62
2022/01/21 11:36:55;;;;;;;22.40;11.00;;;;;;;2.68;81.63;101815.22;4995920;28;20053;-62
2022/01/21 11:39:25;;;;;;;13.75;7.63;;;;;;;2.69;81.42;101811.88;5013295;28;20057;-63
2022/01/21 11:41:55;;;;;;;16.95;7.80;;;;;;;2.69;81.18;101799.09;4980424;28;20122;-62
2022/01/21 11:44:23;;;;;;;16.48;8.43;;;;;;;2.70;82.09;101811.13;4980069;28;20038;-63
2022/01/21 11:49:29;;;;;;;16.25;7.95;;;;;;;2.70;81.84;101794.84;5013554;28;20504;-63
2022/01/21 11:52:14;;;;;;;16.90;8.05;;;;;;;2.71;81.26;101794.97;4980291;28;20038;-63
2022/01/21 11:54:42;;;;;;;15.13;7.05;;;;;;;2.71;81.34;101791.50;4996247;28;20062;-63
2022/01/21 11:57:11;;;;;;;13.02;6.57;;;;;;;2.73;81.47;101782.28;4979633;28;20501;-63
2022/01/21 11:59:51;;;;;;;19.98;8.38;;;;;;;2.77;81.40;101786.88;4995850;28;20124;-63
2022/01/21 12:02:23;;;;;;;13.52;6.75;;;;;;;2.78;81.22;101783.53;4996181;28;20065;-62
2022/01/21 12:04:56;;;;;;;13.32;7.53;;;;;;;2.81;81.30;101780.28;5015370;28;20125;-63
2022/01/21 12:07:34;;;;;;;28.55;8.85;;;;;;;2.80;81.88;101774.31;4983758;28;20033;-63
2022/01/21 12:10:09;;;;;;;16.30;6.30;;;;;;;2.82;81.56;101770.16;5016883;28;20078;-63
2022/01/21 12:12:52;;;;;;;17.58;7.47;;;;;;;2.86;81.82;101771.31;5017005;28;20064;-63
2022/01/21 12:21:24;;;;;;;15.68;7.80;;;;;;;2.91;82.07;101752.03;5017554;28;20042;-64
2022/01/21 12:23:50;;;;;;;15.48;7.88;;;;;;;2.94;81.58;101748.81;5016984;28;20030;-62
2022/01/21 12:26:18;;;;;;;14.95;7.53;;;;;;;2.96;81.56;101745.59;4983143;28;20128;-63